Time;durP1;ratioP1;P1;durP2;ratioP2;P2;SDS_P1;SDS_P2;PMS_P1;PMS_P2;Temp;Humidity;BMP_temperature;BMP_pressure;BME280_temperature;BME280_humidity;BME280_pressure;Samples;Min_cycle;Max_cycle;Signal;HPM_P1;HPM_P2
2022/02/13 00:00:43;;;;;;;3.63;2.10;;;20.70;49.30;;;;;;4990551;28;87732;-82
2022/02/13 00:03:11;;;;;;;3.40;2.30;;;20.70;49.10;;;;;;4990095;28;87696;-80
2022/02/13 00:05:45;;;;;;;3.47;2.40;;;20.70;49.20;;;;;;4989940;28;88399;-81
2022/02/13 00:08:10;;;;;;;3.75;2.30;;;20.70;49.20;;;;;;4990645;28;88207;-81
2022/02/13 00:10:36;;;;;;;5.68;2.70;;;20.70;49.30;;;;;;4989968;28;87546;-80
2022/02/13 00:13:01;;;;;;;3.58;2.10;;;20.60;49.20;;;;;;4989812;28;87727;-79
2022/02/13 00:15:27;;;;;;;3.95;2.13;;;20.70;49.10;;;;;;4990392;28;87654;-80
2022/02/13 00:17:53;;;;;;;5.80;2.42;;;20.60;49.10;;;;;;4990161;28;88098;-80
2022/02/13 00:20:18;;;;;;;3.28;2.15;;;20.60;49.10;;;;;;4989654;28;87348;-80
2022/02/13 00:22:44;;;;;;;5.40;2.90;;;20.60;49.20;;;;;;4989130;28;89155;-81
2022/02/13 00:25:10;;;;;;;3.60;2.22;;;20.60;49.10;;;;;;4989387;28;88808;-79
2022/02/13 00:27:37;;;;;;;4.18;1.95;;;20.60;49.20;;;;;;4988792;28;88355;-80
2022/02/13 00:30:04;;;;;;;2.97;2.20;;;20.60;49.10;;;;;;4987933;28;87775;-80
2022/02/13 00:32:29;;;;;;;5.35;2.13;;;20.60;49.10;;;;;;4988970;28;88090;-81
2022/02/13 00:34:55;;;;;;;4.60;2.25;;;20.60;49.10;;;;;;4989521;28;87872;-79
2022/02/13 00:37:21;;;;;;;3.30;1.90;;;20.60;49.10;;;;;;4989924;28;87515;-81
2022/02/13 00:39:46;;;;;;;5.22;2.00;;;20.60;49.10;;;;;;4989891;28;86503;-78
2022/02/13 00:42:12;;;;;;;3.58;2.35;;;20.50;49.20;;;;;;4989810;28;88405;-78
2022/02/13 00:44:38;;;;;;;3.85;2.08;;;20.50;49.10;;;;;;4989667;28;87794;-80
2022/02/13 00:47:04;;;;;;;3.33;1.98;;;20.50;49.20;;;;;;4989058;28;88274;-80
2022/02/13 00:49:30;;;;;;;3.58;2.13;;;20.50;49.10;;;;;;4989010;28;87752;-80
2022/02/13 00:51:55;;;;;;;2.75;2.08;;;20.50;49.00;;;;;;4988561;28;87662;-79
2022/02/13 00:54:33;;;;;;;3.35;2.00;;;20.50;48.90;;;;;;4988612;28;87472;-81
2022/02/13 00:56:59;;;;;;;3.78;2.17;;;20.50;49.00;;;;;;4988235;28;87763;-79
2022/02/13 00:59:25;;;;;;;4.78;2.40;;;20.50;49.00;;;;;;4989583;28;88064;-81
2022/02/13 01:01:50;;;;;;;4.07;2.15;;;20.50;49.00;;;;;;4989274;28;87597;-81
2022/02/13 01:04:16;;;;;;;4.05;2.10;;;20.40;49.00;;;;;;4989945;28;87323;-80
2022/02/13 01:06:42;;;;;;;2.83;1.90;;;20.40;48.90;;;;;;4987705;28;86834;-79
2022/02/13 01:09:08;;;;;;;4.55;2.45;;;20.40;48.90;;;;;;4988691;28;87182;-79
2022/02/13 01:11:34;;;;;;;3.47;2.10;;;20.40;48.90;;;;;;4988565;28;88758;-79
2022/02/13 01:14:00;;;;;;;3.38;1.77;;;20.40;48.90;;;;;;4988947;28;90101;-79
2022/02/13 01:16:26;;;;;;;2.97;2.10;;;20.40;48.80;;;;;;4988943;28;87144;-79
2022/02/13 01:18:53;;;;;;;3.58;2.10;;;20.40;48.80;;;;;;4989228;28;86914;-79
2022/02/13 01:21:19;;;;;;;2.80;1.90;;;20.40;48.80;;;;;;4989664;28;87748;-81
2022/02/13 01:23:44;;;;;;;3.47;2.00;;;20.40;48.90;;;;;;4989235;28;87956;-80
2022/02/13 01:26:11;;;;;;;3.75;2.25;;;20.40;48.80;;;;;;4989574;28;87406;-79
2022/02/13 01:28:38;;;;;;;2.72;2.00;;;20.40;48.90;;;;;;4989375;28;86752;-79
2022/02/13 01:31:06;;;;;;;2.33;1.90;;;20.30;48.80;;;;;;4988575;28;88703;-81
2022/02/13 01:33:41;;;;;;;3.53;2.30;;;20.30;48.70;;;;;;4988955;28;88658;-78
2022/02/13 01:36:08;;;;;;;3.15;2.20;;;20.30;48.80;;;;;;4988343;28;89533;-81
2022/02/13 01:38:33;;;;;;;3.58;2.13;;;20.30;48.90;;;;;;4987752;28;87375;-78
2022/02/13 01:41:00;;;;;;;4.55;2.13;;;20.30;48.80;;;;;;4989103;28;87708;-81
2022/02/13 01:43:26;;;;;;;3.58;2.25;;;20.30;48.80;;;;;;4988743;28;87787;-79
2022/02/13 01:45:52;;;;;;;2.83;2.05;;;20.30;48.80;;;;;;4989075;28;87543;-79
2022/02/13 01:48:17;;;;;;;3.40;1.98;;;20.30;48.80;;;;;;4989165;28;87547;-80
2022/02/13 01:50:49;;;;;;;2.53;2.10;;;20.30;48.70;;;;;;4988459;28;87962;-79
2022/02/13 01:53:15;;;;;;;3.53;2.17;;;20.30;48.80;;;;;;4987798;28;90056;-79
2022/02/13 01:55:41;;;;;;;3.38;2.15;;;20.30;48.80;;;;;;4989037;28;87860;-79
2022/02/13 01:58:07;;;;;;;3.03;1.90;;;20.30;48.70;;;;;;4988325;28;87218;-79
2022/02/13 02:00:33;;;;;;;3.17;2.45;;;20.30;48.80;;;;;;4988499;28;89413;-79
2022/02/13 02:02:58;;;;;;;3.80;2.10;;;20.30;48.60;;;;;;4987727;28;88396;-78
2022/02/13 02:05:24;;;;;;;2.42;1.63;;;20.30;48.80;;;;;;4989085;28;87053;-81
2022/02/13 02:07:50;;;;;;;2.67;2.00;;;20.30;48.70;;;;;;4988941;28;87642;-80
2022/02/13 02:10:32;;;;;;;3.53;2.17;;;20.30;48.80;;;;;;4988745;28;87601;-80
2022/02/13 02:12:58;;;;;;;2.05;1.48;;;20.20;48.60;;;;;;4988264;28;87394;-81
2022/02/13 02:15:23;;;;;;;2.80;1.80;;;20.20;48.60;;;;;;4988832;28;88041;-80
2022/02/13 02:17:49;;;;;;;3.35;2.25;;;20.20;48.60;;;;;;4990917;28;87488;-80
2022/02/13 02:20:15;;;;;;;3.45;1.85;;;20.20;48.50;;;;;;4991850;28;87697;-79
2022/02/13 02:22:53;;;;;;;2.97;1.90;;;20.20;48.60;;;;;;4991911;28;87893;-80
2022/02/13 02:25:20;;;;;;;3.25;2.00;;;20.20;48.50;;;;;;4991671;28;88635;-79
2022/02/13 02:27:46;;;;;;;2.67;2.08;;;20.20;48.50;;;;;;4991727;28;87676;-79
2022/02/13 02:30:12;;;;;;;2.58;1.60;;;20.20;48.40;;;;;;4991607;28;87615;-80
2022/02/13 02:32:38;;;;;;;3.22;1.92;;;20.20;48.40;;;;;;4990096;28;88146;-79
2022/02/13 02:35:05;;;;;;;2.13;1.80;;;20.20;48.50;;;;;;4991498;28;86933;-79
2022/02/13 02:37:30;;;;;;;2.40;1.90;;;20.20;48.40;;;;;;4991756;28;87670;-80
2022/02/13 02:39:57;;;;;;;2.33;1.92;;;20.10;48.50;;;;;;4991920;28;87808;-80
2022/02/13 02:42:23;;;;;;;2.78;2.00;;;20.20;48.50;;;;;;5006808;28;89394;-79
2022/02/13 02:44:56;;;;;;;2.55;2.00;;;20.10;48.40;;;;;;4991867;28;87450;-79
2022/02/13 02:47:22;;;;;;;2.92;1.80;;;20.10;48.40;;;;;;4991950;28;87473;-79
2022/02/13 02:49:48;;;;;;;2.17;1.60;;;20.10;48.40;;;;;;4991015;28;88521;-79
2022/02/13 02:52:14;;;;;;;2.92;2.00;;;20.10;48.40;;;;;;4991560;28;87434;-79
2022/02/13 02:54:39;;;;;;;2.55;2.03;;;20.10;48.40;;;;;;4991657;28;87839;-80
2022/02/13 02:57:05;;;;;;;2.92;2.00;;;20.10;48.40;;;;;;4990708;28;87877;-80
2022/02/13 02:59:31;;;;;;;1.90;1.75;;;20.10;48.20;;;;;;4990915;28;87907;-79
2022/02/13 03:01:56;;;;;;;2.78;2.00;;;20.10;48.20;;;;;;4991439;28;87859;-79
2022/02/13 03:04:22;;;;;;;4.20;2.10;;;20.10;48.10;;;;;;4991090;28;87706;-79
2022/02/13 03:06:48;;;;;;;3.50;1.98;;;20.10;48.30;;;;;;4989360;28;89634;-78
2022/02/13 03:09:13;;;;;;;3.28;1.90;;;20.10;48.10;;;;;;4988735;28;90956;-81
2022/02/13 03:11:39;;;;;;;2.83;2.00;;;20.10;48.30;;;;;;4990360;28;87956;-80
2022/02/13 03:14:04;;;;;;;2.67;1.85;;;20.00;48.30;;;;;;4990389;28;87895;-80
2022/02/13 03:16:30;;;;;;;2.38;1.90;;;20.00;48.30;;;;;;4990247;28;87504;-78
2022/02/13 03:18:56;;;;;;;3.30;2.05;;;20.00;48.30;;;;;;4990478;28;87484;-78
2022/02/13 03:21:21;;;;;;;2.78;1.90;;;20.00;48.20;;;;;;4990539;28;87591;-80
2022/02/13 03:23:47;;;;;;;2.75;1.77;;;20.00;48.20;;;;;;4991078;28;87420;-80
2022/02/13 03:26:12;;;;;;;2.53;1.80;;;20.00;48.20;;;;;;4990641;28;86935;-79
2022/02/13 03:28:38;;;;;;;2.45;1.73;;;20.00;48.00;;;;;;4989064;28;87806;-80
2022/02/13 03:31:04;;;;;;;2.40;1.75;;;20.00;48.10;;;;;;4989883;28;88131;-81
2022/02/13 03:33:32;;;;;;;2.30;1.67;;;20.00;48.10;;;;;;4991172;28;87875;-80
2022/02/13 03:36:00;;;;;;;2.67;2.10;;;20.00;48.10;;;;;;4990719;28;87981;-79
2022/02/13 03:38:25;;;;;;;2.60;1.88;;;20.00;48.10;;;;;;4990172;28;88544;-79
2022/02/13 03:40:51;;;;;;;2.55;1.70;;;20.00;48.20;;;;;;4990568;28;88135;-79
2022/02/13 03:43:17;;;;;;;2.15;1.80;;;20.00;48.10;;;;;;4990739;28;87905;-80
2022/02/13 03:45:43;;;;;;;2.15;1.90;;;19.90;48.10;;;;;;4991040;28;87473;-81
2022/02/13 03:48:08;;;;;;;2.50;1.92;;;20.00;48.10;;;;;;4990934;28;88227;-79
2022/02/13 03:50:34;;;;;;;1.90;1.58;;;20.00;48.00;;;;;;4990745;28;87966;-80
2022/02/13 03:53:00;;;;;;;3.13;1.67;;;19.90;47.80;;;;;;4989071;28;87200;-79
2022/02/13 03:55:26;;;;;;;2.15;1.70;;;19.90;47.90;;;;;;4990237;28;86714;-79
2022/02/13 03:57:51;;;;;;;2.83;1.80;;;19.90;47.80;;;;;;4990570;28;87816;-80
2022/02/13 04:00:18;;;;;;;2.78;1.80;;;19.90;47.90;;;;;;4990543;28;87701;-80
2022/02/13 04:02:44;;;;;;;2.70;1.75;;;19.90;47.90;;;;;;4990139;28;88715;-80
2022/02/13 04:05:11;;;;;;;2.33;1.70;;;19.90;47.90;;;;;;4990552;28;87595;-79
2022/02/13 04:07:38;;;;;;;2.20;1.95;;;19.90;48.00;;;;;;4989990;28;87624;-80
2022/02/13 04:10:04;;;;;;;2.05;1.70;;;19.90;47.90;;;;;;4990001;28;87307;-79
2022/02/13 04:12:29;;;;;;;2.25;1.75;;;19.90;47.80;;;;;;4989985;28;87836;-79
2022/02/13 04:14:55;;;;;;;2.22;2.00;;;19.90;47.80;;;;;;4990202;28;87836;-80
2022/02/13 04:17:21;;;;;;;2.35;1.88;;;19.90;47.80;;;;;;4990198;28;88068;-81
2022/02/13 04:19:46;;;;;;;2.35;1.88;;;19.90;47.80;;;;;;4990527;28;87155;-80
2022/02/13 04:22:17;;;;;;;1.95;1.65;;;19.90;47.80;;;;;;4988909;28;87288;-80
2022/02/13 04:24:43;;;;;;;2.20;1.73;;;19.80;47.80;;;;;;4990528;28;87645;-79
2022/02/13 04:27:08;;;;;;;2.40;1.70;;;19.80;47.70;;;;;;4989218;28;88750;-79
2022/02/13 04:29:34;;;;;;;2.00;1.80;;;19.80;48.40;;;;;;4989590;28;88558;-81
2022/02/13 04:32:00;;;;;;;2.05;1.83;;;19.80;47.60;;;;;;4989791;28;86888;-79
2022/02/13 04:34:26;;;;;;;2.17;1.98;;;19.80;47.70;;;;;;4989828;28;87160;-79
2022/02/13 04:36:51;;;;;;;2.33;1.70;;;19.80;47.80;;;;;;4989990;28;87903;-79
2022/02/13 04:39:17;;;;;;;2.55;1.67;;;19.80;47.70;;;;;;4988425;28;89623;-79
2022/02/13 04:41:43;;;;;;;2.30;1.95;;;19.80;47.60;;;;;;4989729;28;87290;-80
2022/02/13 04:44:08;;;;;;;2.28;1.80;;;19.80;47.70;;;;;;4989325;28;86820;-79
2022/02/13 04:46:34;;;;;;;3.08;2.03;;;19.80;47.70;;;;;;4989161;28;88141;-81
2022/02/13 04:48:59;;;;;;;2.50;1.90;;;19.80;47.90;;;;;;4989322;28;87752;-79
2022/02/13 04:51:25;;;;;;;2.47;1.98;;;19.80;47.70;;;;;;4989118;28;88313;-79
2022/02/13 04:53:51;;;;;;;2.22;1.70;;;19.70;47.70;;;;;;4987513;28;89439;-79
2022/02/13 04:56:16;;;;;;;2.08;1.63;;;19.80;47.70;;;;;;4988010;28;87806;-80
2022/02/13 04:58:42;;;;;;;2.83;1.80;;;19.80;47.70;;;;;;4988478;28;87336;-79
2022/02/13 05:01:09;;;;;;;2.47;1.80;;;19.80;47.70;;;;;;4987582;28;88257;-79
2022/02/13 05:03:36;;;;;;;2.40;1.70;;;19.80;47.70;;;;;;4987887;28;87927;-80
2022/02/13 05:06:02;;;;;;;2.40;1.70;;;19.70;47.70;;;;;;4989197;28;88082;-80
2022/02/13 05:08:30;;;;;;;2.03;1.40;;;19.80;47.70;;;;;;4988858;28;87804;-80
2022/02/13 05:10:55;;;;;;;2.25;1.88;;;19.80;47.70;;;;;;4987191;28;87608;-79
2022/02/13 05:13:23;;;;;;;3.53;1.80;;;19.80;48.30;;;;;;4988636;28;87486;-80
2022/02/13 05:15:49;;;;;;;1.77;1.65;;;19.70;47.50;;;;;;4987976;28;89178;-79
2022/02/13 05:18:14;;;;;;;2.38;1.80;;;19.70;47.50;;;;;;4988798;28;88368;-80
2022/02/13 05:20:40;;;;;;;2.25;1.75;;;19.70;47.50;;;;;;4988480;28;87988;-80
2022/02/13 05:23:05;;;;;;;2.58;2.00;;;19.70;47.50;;;;;;4986116;28;89499;-80
2022/02/13 05:25:31;;;;;;;2.00;1.70;;;19.70;47.30;;;;;;4988527;28;87622;-79
2022/02/13 05:27:57;;;;;;;2.40;1.65;;;19.70;47.50;;;;;;4988613;28;88979;-79
2022/02/13 05:30:22;;;;;;;2.03;1.55;;;19.70;47.50;;;;;;4988764;28;87622;-81
2022/02/13 05:32:48;;;;;;;2.00;1.50;;;19.70;47.50;;;;;;4989312;28;87418;-79
2022/02/13 05:35:14;;;;;;;1.90;1.60;;;19.70;47.40;;;;;;4988598;28;87852;-80
2022/02/13 05:37:39;;;;;;;2.15;1.80;;;19.60;47.30;;;;;;4989665;28;88023;-81
2022/02/13 05:40:06;;;;;;;1.85;1.50;;;19.60;47.40;;;;;;4987322;28;88388;-82
2022/02/13 05:42:32;;;;;;;2.85;1.67;;;19.60;47.50;;;;;;4988179;28;87247;-81
2022/02/13 05:44:57;;;;;;;1.67;1.52;;;19.70;47.60;;;;;;4986694;28;91839;-82
2022/02/13 05:47:23;;;;;;;1.63;1.50;;;19.70;47.60;;;;;;4988752;28;87891;-82
2022/02/13 05:49:49;;;;;;;2.20;1.73;;;19.60;47.50;;;;;;4989196;28;87832;-81
2022/02/13 05:52:15;;;;;;;2.95;1.60;;;19.70;47.40;;;;;;4989821;28;87301;-82
2022/02/13 05:54:40;;;;;;;1.75;1.58;;;19.70;47.40;;;;;;4992012;28;87791;-79
2022/02/13 05:57:06;;;;;;;2.47;1.85;;;19.60;47.30;;;;;;4992699;28;87216;-81
2022/02/13 05:59:35;;;;;;;2.15;1.58;;;19.60;47.40;;;;;;4992207;28;87173;-81
2022/02/13 06:02:00;;;;;;;2.42;1.65;;;19.60;47.30;;;;;;4991786;28;87620;-81
2022/02/13 06:04:29;;;;;;;1.83;1.60;;;19.60;47.40;;;;;;4991057;28;89209;-81
2022/02/13 06:06:55;;;;;;;1.98;1.63;;;19.60;47.30;;;;;;4991926;28;88228;-80
2022/02/13 06:09:22;;;;;;;2.58;1.85;;;19.60;47.40;;;;;;4992431;28;86849;-80
2022/02/13 06:11:48;;;;;;;2.00;1.58;;;19.50;47.30;;;;;;4991551;28;87320;-81
2022/02/13 06:14:14;;;;;;;2.95;1.77;;;19.60;47.60;;;;;;4991161;28;87519;-82
2022/02/13 06:16:40;;;;;;;1.75;1.60;;;19.60;47.30;;;;;;4991961;28;87895;-81
2022/02/13 06:19:06;;;;;;;4.15;1.88;;;19.50;47.20;;;;;;4991627;28;87401;-81
2022/02/13 06:21:32;;;;;;;3.97;2.03;;;19.60;46.10;;;;;;4991038;28;88673;-81
2022/02/13 06:23:58;;;;;;;2.72;1.98;;;19.60;46.70;;;;;;4992147;28;88591;-81
2022/02/13 06:26:24;;;;;;;5.63;2.22;;;19.50;47.00;;;;;;4990668;28;87360;-82
2022/02/13 06:28:50;;;;;;;2.35;1.90;;;19.60;47.00;;;;;;4991338;28;88742;-81
2022/02/13 06:31:16;;;;;;;2.38;1.75;;;19.70;47.00;;;;;;4990997;28;87657;-81
2022/02/13 06:33:41;;;;;;;6.85;2.00;;;19.60;47.30;;;;;;4990728;28;87461;-80
2022/02/13 06:36:07;;;;;;;3.15;2.08;;;19.70;47.50;;;;;;4990881;28;87813;-79
2022/02/13 06:38:33;;;;;;;16.45;2.75;;;19.70;47.90;;;;;;4990791;28;87584;-81
2022/02/13 06:40:59;;;;;;;11.93;3.20;;;19.80;47.70;;;;;;4991298;28;87001;-80
2022/02/13 06:43:24;;;;;;;13.60;2.67;;;19.90;47.90;;;;;;4990568;28;87790;-80
2022/02/13 06:45:50;;;;;;;7.88;2.75;;;19.90;48.00;;;;;;4990584;28;87922;-79
2022/02/13 06:48:18;;;;;;;10.15;2.33;;;20.00;48.00;;;;;;4991272;28;87016;-79
2022/02/13 06:50:44;;;;;;;5.77;2.27;;;20.00;47.70;;;;;;4991138;28;86958;-80
2022/02/13 06:53:12;;;;;;;6.07;1.95;;;20.00;47.80;;;;;;4990252;28;88707;-81
2022/02/13 06:55:38;;;;;;;8.07;2.10;;;20.00;48.30;;;;;;4989382;28;90890;-79
2022/02/13 06:58:03;;;;;;;7.90;2.40;;;20.10;48.00;;;;;;4990916;28;87821;-80
2022/02/13 07:00:29;;;;;;;7.63;1.83;;;20.10;48.20;;;;;;4991555;28;87611;-78
2022/02/13 07:02:55;;;;;;;13.07;2.67;;;20.10;48.00;;;;;;4989554;28;87173;-79
2022/02/13 07:05:23;;;;;;;8.27;2.45;;;20.10;48.20;;;;;;4989233;28;87689;-79
2022/02/13 07:07:50;;;;;;;9.20;2.47;;;20.20;48.10;;;;;;4990919;28;87528;-79
2022/02/13 07:10:15;;;;;;;10.07;1.95;;;20.20;48.20;;;;;;4991078;28;86909;-81
2022/02/13 07:12:41;;;;;;;11.98;2.63;;;20.20;48.20;;;;;;4991343;28;87590;-81
2022/02/13 07:15:08;;;;;;;7.72;2.15;;;20.20;48.20;;;;;;4990865;28;88138;-80
2022/02/13 07:17:34;;;;;;;35.42;7.47;;;20.20;48.00;;;;;;4989648;28;87915;-81
2022/02/13 07:20:00;;;;;;;11.98;2.78;;;20.20;48.00;;;;;;4990213;28;87710;-81
2022/02/13 07:22:25;;;;;;;7.75;3.05;;;20.20;48.00;;;;;;4990100;28;87544;-81
2022/02/13 07:24:51;;;;;;;17.17;3.92;;;20.20;48.00;;;;;;4990565;28;87843;-79
2022/02/13 07:27:17;;;;;;;19.58;4.43;;;20.30;47.90;;;;;;4991146;28;87433;-80
2022/02/13 07:29:43;;;;;;;17.23;3.78;;;20.30;47.90;;;;;;4990563;28;86985;-80
2022/02/13 07:32:09;;;;;;;19.15;3.67;;;20.30;47.90;;;;;;4989843;28;87871;-80
2022/02/13 07:34:35;;;;;;;15.30;3.80;;;20.30;48.20;;;;;;4988866;28;89460;-79
2022/02/13 07:37:19;;;;;;;15.60;4.85;;;20.30;48.10;;;;;;4990344;28;87944;-79
2022/02/13 07:39:44;;;;;;;13.55;4.28;;;20.40;48.40;;;;;;4985268;28;90349;-79
2022/02/13 07:42:10;;;;;;;14.52;3.80;;;20.40;48.40;;;;;;4988645;28;88541;-78
2022/02/13 07:44:37;;;;;;;15.20;4.22;;;20.50;48.60;;;;;;4988953;28;88995;-80
2022/02/13 07:47:04;;;;;;;33.35;7.88;;;20.60;50.60;;;;;;4989642;28;87458;-80
2022/02/13 07:49:29;;;;;;;36.53;7.70;;;20.70;50.00;;;;;;4988211;28;87615;-79
2022/02/13 07:51:56;;;;;;;30.42;7.38;;;20.80;48.10;;;;;;4990185;28;88525;-82
2022/02/13 07:54:22;;;;;;;22.83;5.85;;;20.80;48.10;;;;;;4990187;28;87707;-80
2022/02/13 07:56:47;;;;;;;32.03;6.53;;;20.80;48.40;;;;;;4990098;28;87587;-83
2022/02/13 07:59:13;;;;;;;26.15;6.10;;;20.80;48.30;;;;;;4989777;28;87522;-83
2022/02/13 08:01:39;;;;;;;23.92;6.20;;;20.80;47.40;;;;;;4989819;28;87873;-81
2022/02/13 08:04:04;;;;;;;20.77;5.85;;;20.80;48.30;;;;;;4988933;28;87622;-80
2022/02/13 08:06:30;;;;;;;17.02;4.32;;;20.80;49.10;;;;;;4936120;28;88386;-81
2022/02/13 08:08:55;;;;;;;22.42;6.18;;;20.80;47.90;;;;;;5001460;28;87826;-82
2022/02/13 08:11:21;;;;;;;18.38;6.25;;;20.80;47.80;;;;;;4989745;28;88061;-81
2022/02/13 08:13:47;;;;;;;22.75;4.85;;;20.80;46.50;;;;;;4990010;28;88561;-80
2022/02/13 08:16:18;;;;;;;20.20;5.10;;;20.80;46.90;;;;;;4989937;28;87080;-80
2022/02/13 08:18:44;;;;;;;15.30;5.22;;;20.80;46.80;;;;;;4990240;28;87539;-79
2022/02/13 08:21:09;;;;;;;19.88;5.93;;;20.80;48.30;;;;;;4991347;28;87903;-83
2022/02/13 08:23:36;;;;;;;19.15;5.70;;;20.80;47.30;;;;;;4990354;28;87938;-80
2022/02/13 08:26:02;;;;;;;16.20;5.70;;;20.80;46.60;;;;;;4990068;28;86963;-81
2022/02/13 08:28:33;;;;;;;16.67;5.80;;;20.80;45.40;;;;;;4990408;28;86932;-80
2022/02/13 08:30:59;;;;;;;15.43;5.18;;;20.80;45.60;;;;;;4989589;28;87947;-78
2022/02/13 08:33:25;;;;;;;12.93;5.20;;;20.80;46.00;;;;;;4989530;28;89048;-81
2022/02/13 08:35:51;;;;;;;16.60;5.03;;;20.80;45.80;;;;;;4989996;28;87464;-82
2022/02/13 08:38:16;;;;;;;13.80;5.45;;;20.80;45.80;;;;;;4990036;28;87906;-81
2022/02/13 08:40:42;;;;;;;12.85;4.88;;;20.80;45.90;;;;;;4989653;28;88146;-81
2022/02/13 08:43:08;;;;;;;15.52;4.75;;;20.80;46.00;;;;;;4989420;28;87471;-82
2022/02/13 08:45:35;;;;;;;11.77;4.22;;;20.80;45.20;;;;;;4989633;28;87778;-83
2022/02/13 08:48:01;;;;;;;12.40;4.50;;;20.80;45.20;;;;;;4989624;28;86951;-81
2022/02/13 08:50:27;;;;;;;10.77;4.47;;;20.80;45.80;;;;;;4989431;28;88575;-80
2022/02/13 08:52:53;;;;;;;14.75;4.40;;;20.70;43.20;;;;;;4988695;28;87823;-81
2022/02/13 08:55:28;;;;;;;12.60;4.68;;;20.80;43.50;;;;;;4988526;28;88339;-82
2022/02/13 08:57:54;;;;;;;18.23;5.15;;;20.80;43.90;;;;;;4989885;28;87672;-81
2022/02/13 09:00:20;;;;;;;12.43;4.72;;;20.80;45.40;;;;;;4989289;28;87408;-80
2022/02/13 09:02:46;;;;;;;14.05;5.30;;;20.80;46.40;;;;;;4988708;28;87406;-81
2022/02/13 09:05:12;;;;;;;15.55;4.60;;;20.80;47.50;;;;;;4987197;28;87822;-77
2022/02/13 09:07:38;;;;;;;11.90;4.63;;;20.80;47.20;;;;;;4987173;28;88113;-82
2022/02/13 09:10:10;;;;;;;11.38;4.80;;;20.80;47.70;;;;;;4988601;28;88206;-81
2022/02/13 09:12:37;;;;;;;11.80;5.00;;;20.80;49.20;;;;;;4989963;28;88170;-79
2022/02/13 09:15:04;;;;;;;14.55;4.65;;;20.90;48.50;;;;;;4989373;28;87494;-82
2022/02/13 09:17:29;;;;;;;12.10;4.97;;;20.90;47.50;;;;;;4989166;28;88756;-80
2022/02/13 09:19:55;;;;;;;14.57;5.13;;;20.90;48.30;;;;;;4988469;28;89683;-82
2022/02/13 09:22:21;;;;;;;16.00;5.15;;;20.90;50.00;;;;;;4989190;28;88902;-81
2022/02/13 09:24:46;;;;;;;15.85;4.75;;;20.90;49.80;;;;;;4989232;28;87837;-83
2022/02/13 09:27:12;;;;;;;16.08;4.95;;;20.90;49.30;;;;;;4989752;28;88052;-83
2022/02/13 09:29:37;;;;;;;13.60;5.18;;;20.90;49.40;;;;;;4993393;28;87872;-82
2022/02/13 09:32:04;;;;;;;13.70;4.43;;;21.00;51.30;;;;;;4991416;28;88433;-83
2022/02/13 09:34:33;;;;;;;11.43;4.50;;;21.00;49.80;;;;;;4992623;28;87916;-80
2022/02/13 09:37:05;;;;;;;12.18;4.32;;;21.00;50.20;;;;;;4992381;28;87281;-83
2022/02/13 09:39:31;;;;;;;13.07;4.75;;;21.00;50.30;;;;;;4991553;28;87992;-81
2022/02/13 09:41:57;;;;;;;16.08;4.88;;;21.00;51.40;;;;;;4991675;28;87904;-84
2022/02/13 09:44:23;;;;;;;12.98;4.40;;;21.00;51.20;;;;;;4992041;28;88909;-81
2022/02/13 09:46:49;;;;;;;13.13;4.25;;;21.00;51.10;;;;;;4993321;28;87584;-83
2022/02/13 09:49:22;;;;;;;13.23;4.32;;;21.00;50.50;;;;;;4994295;28;87559;-81
2022/02/13 09:51:48;;;;;;;15.77;4.68;;;21.00;50.50;;;;;;4994369;28;87215;-82
2022/02/13 09:54:13;;;;;;;13.63;4.75;;;20.90;51.40;;;;;;4993724;28;87067;-82
2022/02/13 09:56:39;;;;;;;11.30;4.25;;;20.90;51.20;;;;;;4993657;28;88088;-83
2022/02/13 09:59:08;;;;;;;13.23;4.35;;;20.90;51.40;;;;;;4992969;28;87427;-81
2022/02/13 10:01:42;;;;;;;13.98;4.45;;;20.90;51.40;;;;;;4993211;28;87675;-80
2022/02/13 10:04:22;;;;;;;13.40;4.43;;;20.90;51.40;;;;;;4993265;28;87653;-80
2022/02/13 10:06:47;;;;;;;8.27;4.03;;;20.90;51.10;;;;;;4991982;28;88005;-79
2022/02/13 10:09:13;;;;;;;9.60;3.85;;;20.90;51.60;;;;;;4991189;28;88747;-80
2022/02/13 10:11:40;;;;;;;9.95;3.55;;;20.90;50.30;;;;;;4991575;28;88455;-83
2022/02/13 10:14:12;;;;;;;9.80;4.18;;;20.80;51.10;;;;;;4985333;28;88133;-81
2022/02/13 10:16:46;;;;;;;10.48;3.78;;;20.90;50.00;;;;;;4990303;28;87568;-82
2022/02/13 10:19:17;;;;;;;11.65;3.80;;;20.90;51.20;;;;;;4990841;28;87961;-78
2022/02/13 10:21:57;;;;;;;11.93;4.07;;;21.00;51.30;;;;;;4962940;28;87528;-83
2022/02/13 10:24:36;;;;;;;8.88;4.00;;;21.00;51.40;;;;;;4984223;28;88169;-83
2022/02/13 10:27:15;;;;;;;11.73;4.20;;;21.00;50.80;;;;;;4991819;28;87076;-81
2022/02/13 10:29:45;;;;;;;9.75;4.65;;;21.00;51.80;;;;;;4991223;28;88015;-83
2022/02/13 10:32:31;;;;;;;9.35;3.92;;;21.00;51.40;;;;;;4990873;28;88459;-81
2022/02/13 10:35:00;;;;;;;10.07;4.15;;;21.00;51.50;;;;;;4991139;28;88847;-83
2022/02/13 10:37:39;;;;;;;10.20;3.70;;;21.00;51.30;;;;;;4989206;28;87611;-83
2022/02/13 10:40:06;;;;;;;10.77;3.53;;;21.00;51.30;;;;;;4990864;28;88234;-82
2022/02/13 10:42:32;;;;;;;6.32;2.95;;;21.10;52.10;;;;;;4991140;28;87393;-83
2022/02/13 10:45:16;;;;;;;7.97;3.58;;;21.10;53.60;;;;;;4990366;28;86854;-82
2022/02/13 10:47:43;;;;;;;10.77;3.70;;;21.10;54.00;;;;;;4991246;28;87979;-80
2022/02/13 10:50:09;;;;;;;8.43;3.30;;;21.00;52.30;;;;;;4991849;28;87902;-81
2022/02/13 10:52:35;;;;;;;6.57;3.25;;;21.10;51.80;;;;;;4991828;28;87557;-80
2022/02/13 10:55:03;;;;;;;9.68;3.80;;;21.10;51.60;;;;;;4991729;28;87698;-82
2022/02/13 10:57:29;;;;;;;8.35;3.85;;;21.10;52.40;;;;;;4991278;28;88243;-82
2022/02/13 10:59:54;;;;;;;9.30;3.83;;;21.20;53.00;;;;;;4990831;28;88742;-82
2022/02/13 11:02:26;;;;;;;13.15;3.92;;;21.10;53.10;;;;;;4991131;28;88131;-81
2022/02/13 11:04:55;;;;;;;10.52;3.70;;;21.20;53.40;;;;;;4989910;28;87704;-82
2022/02/13 11:07:22;;;;;;;7.73;3.07;;;21.20;53.60;;;;;;4990781;28;87616;-82
2022/02/13 11:09:51;;;;;;;10.05;3.80;;;21.20;53.50;;;;;;4990310;28;88893;-81
2022/02/13 11:12:21;;;;;;;7.55;3.17;;;21.20;54.10;;;;;;4991075;28;88251;-83
2022/02/13 11:14:49;;;;;;;5.00;2.75;;;21.20;53.10;;;;;;4993599;28;86984;-80
2022/02/13 11:17:28;;;;;;;14.53;3.43;;;21.20;49.70;;;;;;4991862;28;86721;-82
2022/02/13 11:19:56;;;;;;;9.63;3.45;;;21.20;52.90;;;;;;4991913;28;87775;-80
2022/02/13 11:22:35;;;;;;;10.77;3.45;;;21.20;53.90;;;;;;4990761;28;87035;-78
2022/02/13 11:25:39;;;;;;;8.55;3.72;;;21.20;53.80;;;;;;4991251;28;89014;-81
2022/02/13 11:28:04;;;;;;;9.90;3.58;;;21.20;52.70;;;;;;5006056;28;88085;-83
2022/02/13 11:30:48;;;;;;;9.48;3.22;;;21.20;52.70;;;;;;4990592;28;88442;-81
2022/02/13 11:33:23;;;;;;;12.13;3.90;;;21.20;52.50;;;;;;4991047;28;87553;-80
2022/02/13 11:36:02;;;;;;;9.30;3.95;;;21.30;52.90;;;;;;4990502;28;87709;-83
2022/02/13 11:38:51;;;;;;;12.45;3.75;;;21.20;53.10;;;;;;4991135;28;87705;-82
2022/02/13 11:41:48;;;;;;;13.95;3.85;;;21.20;53.00;;;;;;4991020;28;88125;-81
2022/02/13 11:44:33;;;;;;;13.70;3.72;;;21.20;53.10;;;;;;4990325;28;87193;-84
2022/02/13 11:46:59;;;;;;;7.13;3.33;;;21.30;53.30;;;;;;4990304;28;87048;-81
2022/02/13 11:49:25;;;;;;;13.80;4.38;;;21.30;53.20;;;;;;4989585;28;87622;-80
2022/02/13 11:51:54;;;;;;;11.60;3.72;;;21.30;53.50;;;;;;4989352;28;89244;-81
2022/02/13 11:54:37;;;;;;;15.38;4.15;;;21.30;54.00;;;;;;4989783;28;88393;-79
2022/02/13 11:57:11;;;;;;;13.85;4.22;;;21.30;54.10;;;;;;4990446;28;87044;-83
2022/02/13 11:59:56;;;;;;;8.15;3.20;;;21.30;54.50;;;;;;4989068;28;89482;-80
2022/02/13 12:02:30;;;;;;;9.13;3.60;;;21.30;54.50;;;;;;4989236;28;88219;-82
2022/02/13 12:05:11;;;;;;;14.85;4.13;;;21.30;54.20;;;;;;4988842;28;87455;-80
2022/02/13 12:07:45;;;;;;;11.15;3.45;;;21.30;54.30;;;;;;4988115;28;88077;-81
2022/02/13 12:10:11;;;;;;;6.93;3.65;;;21.30;53.90;;;;;;4993008;28;86813;-81
2022/02/13 12:12:44;;;;;;;7.28;3.20;;;21.30;53.80;;;;;;4990622;28;87968;-80
2022/02/13 12:15:14;;;;;;;10.27;3.45;;;21.30;53.80;;;;;;4991156;28;88382;-84
2022/02/13 12:17:40;;;;;;;;;;;21.40;53.90;;;;;;4987333;28;88220;-81
2022/02/13 12:20:07;;;;;;;12.82;4.18;;;21.30;53.70;;;;;;4989063;28;89661;-79
2022/02/13 12:22:34;;;;;;;12.23;4.35;;;21.40;53.10;;;;;;4988775;28;88620;-80
2022/02/13 12:25:02;;;;;;;9.23;4.25;;;21.40;52.10;;;;;;4989863;28;87292;-79
2022/02/13 12:27:34;;;;;;;9.38;4.28;;;21.40;51.60;;;;;;4988923;28;87933;-82
2022/02/13 12:30:04;;;;;;;11.43;4.25;;;21.40;51.60;;;;;;5002846;28;89479;-83
2022/02/13 12:32:37;;;;;;;17.40;4.30;;;21.40;51.80;;;;;;4989431;28;90232;-81
2022/02/13 12:35:30;;;;;;;13.75;4.53;;;21.40;52.10;;;;;;4987049;28;90660;-78
2022/02/13 12:37:57;;;;;;;9.82;3.40;;;21.40;52.30;;;;;;5004687;28;88019;-80
2022/02/13 12:40:29;;;;;;;10.05;4.10;;;21.50;52.50;;;;;;4989689;28;87505;-79
2022/02/13 12:43:05;;;;;;;7.95;3.60;;;21.50;52.60;;;;;;4988594;28;88531;-79
2022/02/13 12:45:33;;;;;;;9.05;3.70;;;21.50;52.70;;;;;;4988368;28;88483;-81